createdAt,value
2023-04-15T00:11:09.359Z,1
2023-04-15T00:23:08.788Z,1
2023-04-15T00:35:08.937Z,1
2023-04-15T00:47:08.904Z,1
2023-04-15T00:59:08.866Z,1
2023-04-15T01:11:08.792Z,2
2023-04-15T01:23:08.991Z,2
2023-04-15T01:35:08.969Z,2
2023-04-15T01:47:08.881Z,2
2023-04-15T01:59:08.836Z,2
2023-04-15T02:11:09.002Z,3
2023-04-15T02:23:08.963Z,3
2023-04-15T02:35:08.986Z,3
2023-04-15T02:47:09.562Z,3
2023-04-15T02:59:09.041Z,3
2023-04-15T03:11:08.980Z,4
2023-04-15T03:23:08.992Z,4
2023-04-15T03:35:09.078Z,4
2023-04-15T03:47:09.093Z,4
2023-04-15T03:59:08.997Z,4
2023-04-15T04:11:09.143Z,5
2023-04-15T04:23:09.199Z,5
2023-04-15T04:35:09.139Z,5
2023-04-15T04:47:09.080Z,5
2023-04-15T04:59:09.040Z,5
2023-04-15T05:11:09.194Z,6
2023-04-15T05:23:09.647Z,6
2023-04-15T05:35:09.098Z,6
2023-04-15T05:47:09.073Z,6
2023-04-15T05:59:09.268Z,6
2023-04-15T06:11:09.200Z,7
2023-04-15T06:23:09.127Z,7
2023-04-15T06:35:09.114Z,7
2023-04-15T06:47:09.249Z,7
2023-04-15T06:59:09.286Z,7
2023-04-15T07:11:09.168Z,8
2023-04-15T07:23:09.364Z,8
2023-04-15T07:35:09.292Z,8
2023-04-15T07:47:09.255Z,8
2023-04-15T07:59:09.256Z,8
2023-04-15T08:11:09.380Z,9
2023-04-15T08:23:09.800Z,9
2023-04-15T08:35:09.331Z,9
2023-04-15T08:47:09.508Z,9
2023-04-15T08:59:09.406Z,9
2023-04-15T09:11:09.360Z,10
2023-04-15T09:23:09.326Z,10
2023-04-15T09:35:09.494Z,10
2023-04-15T09:47:09.759Z,10
2023-04-15T09:59:09.367Z,10
2023-04-15T10:11:09.352Z,11
2023-04-15T10:23:11.023Z,11
2023-04-15T10:35:09.511Z,11
2023-04-15T10:47:09.384Z,11
2023-04-15T10:59:09.587Z,11
2023-04-15T11:11:09.504Z,12
2023-04-15T11:23:14.864Z,12
2023-04-15T11:35:09.452Z,12
2023-04-15T11:47:09.609Z,12
2023-04-15T11:59:09.536Z,12
2023-04-15T12:11:09.521Z,13
2023-04-15T12:23:09.485Z,13
2023-04-15T12:35:09.724Z,13
2023-04-15T12:47:09.587Z,13
2023-04-15T12:59:09.588Z,13
2023-04-15T13:11:09.507Z,14
2023-04-15T13:23:09.703Z,14
2023-04-15T13:35:09.648Z,14
2023-04-15T13:47:09.604Z,14
2023-04-15T13:59:09.597Z,14
2023-04-15T14:11:09.697Z,15
2023-04-15T14:23:09.625Z,15
2023-04-15T14:35:09.654Z,15
2023-04-15T14:47:09.761Z,15
2023-04-15T14:59:09.785Z,15
2023-04-15T15:11:09.699Z,16
2023-04-15T15:23:09.664Z,16
2023-04-15T15:35:09.839Z,16
2023-04-15T15:47:09.792Z,16
2023-04-15T15:59:09.714Z,16
2023-04-15T16:11:09.713Z,17
2023-04-15T16:23:09.887Z,17
2023-04-15T16:35:09.864Z,17
2023-04-15T16:47:09.753Z,17
2023-04-15T16:59:09.776Z,17
2023-04-15T17:11:09.910Z,18
2023-04-15T17:23:10.189Z,18
2023-04-15T17:35:09.911Z,18
2023-04-15T17:47:09.829Z,18
2023-04-15T17:59:09.947Z,18
2023-04-15T18:11:10.030Z,19
2023-04-15T18:23:09.845Z,19
2023-04-15T18:35:10.376Z,19
2023-04-15T18:47:09.966Z,19
2023-04-15T18:59:28.341Z,19
2023-04-15T19:11:09.876Z,20
2023-04-15T19:23:10.049Z,20
2023-04-15T19:35:11.511Z,20
2023-04-15T19:47:10.243Z,20
2023-04-15T19:59:09.907Z,20
2023-04-15T20:11:10.140Z,21
2023-04-15T20:23:10.023Z,21
2023-04-15T20:35:10.040Z,21
2023-04-15T20:47:10.170Z,21
2023-04-15T20:59:10.951Z,21
2023-04-15T21:11:10.048Z,22
2023-04-15T21:23:11.898Z,22
2023-04-15T21:35:10.187Z,22
2023-04-15T21:47:10.194Z,22
2023-04-15T21:59:10.050Z,22
2023-04-15T22:11:10.241Z,23
2023-04-15T22:23:10.169Z,23
2023-04-15T22:35:10.195Z,23
2023-04-15T22:47:10.074Z,23
2023-04-15T22:59:10.477Z,23
2023-04-15T23:11:10.201Z,0
2023-04-15T23:23:10.301Z,0
2023-04-15T23:35:10.193Z,0
2023-04-15T23:47:10.199Z,0
2023-04-15T23:59:10.421Z,0
